sensor_id;sensor_type;location;lat;lon;timestamp;pressure;altitude;pressure_sealevel;temperature;humidity
55070;BME280;40967;52.070;8.596;2023-01-05T00:01:44;100150.78;;;10.05;100.00
55070;BME280;40967;52.070;8.596;2023-01-05T00:04:10;100160.53;;;10.11;100.00
55070;BME280;40967;52.070;8.596;2023-01-05T00:06:36;100181.41;;;10.16;100.00
55070;BME280;40967;52.070;8.596;2023-01-05T00:09:02;100194.97;;;10.16;100.00
55070;BME280;40967;52.070;8.596;2023-01-05T00:11:28;100176.53;;;10.18;100.00
55070;BME280;40967;52.070;8.596;2023-01-05T00:14:16;100162.94;;;10.08;100.00
55070;BME280;40967;52.070;8.596;2023-01-05T00:17:00;100180.03;;;10.18;100.00
55070;BME280;40967;52.070;8.596;2023-01-05T00:19:44;100176.53;;;10.18;100.00
55070;BME280;40967;52.070;8.596;2023-01-05T00:22:28;100176.25;;;10.19;100.00
55070;BME280;40967;52.070;8.596;2023-01-05T00:25:12;100162.44;;;10.16;100.00
55070;BME280;40967;52.070;8.596;2023-01-05T00:27:40;100155.91;;;10.07;100.00
55070;BME280;40967;52.070;8.596;2023-01-05T00:30:06;100172.75;;;10.14;100.00
55070;BME280;40967;52.070;8.596;2023-01-05T00:32:32;100186.28;;;10.14;100.00
55070;BME280;40967;52.070;8.596;2023-01-05T00:34:57;100186.03;;;10.15;100.00
55070;BME280;40967;52.070;8.596;2023-01-05T00:37:26;100186.84;;;10.11;100.00
55070;BME280;40967;52.070;8.596;2023-01-05T00:39:52;100186.84;;;10.06;100.00
55070;BME280;40967;52.070;8.596;2023-01-05T00:42:18;100198.75;;;10.10;100.00
55070;BME280;40967;52.070;8.596;2023-01-05T00:44:44;100199.56;;;10.05;100.00
55070;BME280;40967;52.070;8.596;2023-01-05T00:47:09;100200.91;;;10.03;100.00
55070;BME280;40967;52.070;8.596;2023-01-05T00:49:35;100187.94;;;9.90;100.00
55070;BME280;40967;52.070;8.596;2023-01-05T00:52:00;100196.59;;;9.92;100.00
55070;BME280;40967;52.070;8.596;2023-01-05T00:54:26;100196.34;;;9.83;100.00
55070;BME280;40967;52.070;8.596;2023-01-05T00:56:51;100200.66;;;9.84;100.00
55070;BME280;40967;52.070;8.596;2023-01-05T00:59:17;100182.53;;;9.80;100.00
55070;BME280;40967;52.070;8.596;2023-01-05T01:01:46;100189.84;;;9.79;100.00
55070;BME280;40967;52.070;8.596;2023-01-05T01:04:12;100203.66;;;9.78;100.00
55070;BME280;40967;52.070;8.596;2023-01-05T01:06:37;100211.78;;;9.78;100.00
55070;BME280;40967;52.070;8.596;2023-01-05T01:09:03;100195.53;;;9.73;100.00
55070;BME280;40967;52.070;8.596;2023-01-05T01:11:28;100208.53;;;9.66;100.00
55070;BME280;40967;52.070;8.596;2023-01-05T01:13:54;100211.53;;;9.64;100.00
55070;BME280;40967;52.070;8.596;2023-01-05T01:16:19;100220.72;;;9.63;100.00
55070;BME280;40967;52.070;8.596;2023-01-05T01:18:45;100221.53;;;9.59;100.00
55070;BME280;40967;52.070;8.596;2023-01-05T01:21:10;100209.88;;;9.43;100.00
55070;BME280;40967;52.070;8.596;2023-01-05T01:23:36;100227.47;;;9.51;100.00
55070;BME280;40967;52.070;8.596;2023-01-05T01:26:05;100240.50;;;9.54;100.00
55070;BME280;40967;52.070;8.596;2023-01-05T01:28:31;100227.75;;;9.54;100.00
55070;BME280;40967;52.070;8.596;2023-01-05T01:30:57;100237.78;;;9.54;100.00
55070;BME280;40967;52.070;8.596;2023-01-05T01:33:22;100229.94;;;9.57;100.00
55070;BME280;40967;52.070;8.596;2023-01-05T01:35:48;100211.22;;;9.56;100.00
55070;BME280;40967;52.070;8.596;2023-01-05T01:38:13;100226.97;;;9.54;100.00
55070;BME280;40967;52.070;8.596;2023-01-05T01:40:40;100215.56;;;9.62;100.00
55070;BME280;40967;52.070;8.596;2023-01-05T01:46:02;100226.97;;;9.64;100.00
55070;BME280;40967;52.070;8.596;2023-01-05T01:48:28;100242.66;;;9.67;100.00
55070;BME280;40967;52.070;8.596;2023-01-05T01:50:53;100236.16;;;9.63;100.00
55070;BME280;40967;52.070;8.596;2023-01-05T01:53:26;100234.81;;;9.70;100.00
55070;BME280;40967;52.070;8.596;2023-01-05T01:55:54;100238.88;;;9.73;100.00
55070;BME280;40967;52.070;8.596;2023-01-05T01:58:25;100232.09;;;9.75;100.00
55070;BME280;40967;52.070;8.596;2023-01-05T02:00:52;100254.88;;;9.74;100.00
55070;BME280;40967;52.070;8.596;2023-01-05T02:03:20;100244.56;;;9.71;100.00
55070;BME280;40967;52.070;8.596;2023-01-05T02:05:45;100256.47;;;9.75;100.00
55070;BME280;40967;52.070;8.596;2023-01-05T02:08:13;100245.91;;;9.74;100.00
55070;BME280;40967;52.070;8.596;2023-01-05T02:13:47;100251.59;;;9.82;100.00
55070;BME280;40967;52.070;8.596;2023-01-05T02:22:00;100257.84;;;9.83;100.00
55070;BME280;40967;52.070;8.596;2023-01-05T02:32:33;100245.91;;;9.79;100.00
55070;BME280;40967;52.070;8.596;2023-01-05T02:35:26;100242.66;;;9.82;100.00
55070;BME280;40967;52.070;8.596;2023-01-05T02:40:38;100253.50;;;9.82;100.00
55070;BME280;40967;52.070;8.596;2023-01-05T02:43:07;100242.38;;;9.78;100.00
55070;BME280;40967;52.070;8.596;2023-01-05T02:45:33;100259.47;;;9.74;100.00
55070;BME280;40967;52.070;8.596;2023-01-05T02:47:59;100260.00;;;9.81;100.00
55070;BME280;40967;52.070;8.596;2023-01-05T02:50:28;100258.91;;;9.77;100.00
55070;BME280;40967;52.070;8.596;2023-01-05T02:55:51;100261.06;;;9.75;100.00
55070;BME280;40967;52.070;8.596;2023-01-05T03:00:59;100261.63;;;9.72;100.00
55070;BME280;40967;52.070;8.596;2023-01-05T03:03:31;100263.22;;;9.68;100.00
55070;BME280;40967;52.070;8.596;2023-01-05T03:06:02;100255.66;;;9.70;100.00
55070;BME280;40967;52.070;8.596;2023-01-05T03:08:30;100258.63;;;9.63;100.00
55070;BME280;40967;52.070;8.596;2023-01-05T03:10:58;100260.53;;;9.68;100.00
55070;BME280;40967;52.070;8.596;2023-01-05T03:13:46;100267.31;;;9.65;100.00
55070;BME280;40967;52.070;8.596;2023-01-05T03:16:23;100271.13;;;9.64;100.00
55070;BME280;40967;52.070;8.596;2023-01-05T03:18:51;100249.13;;;9.51;100.00
55070;BME280;40967;52.070;8.596;2023-01-05T03:21:36;100269.47;;;9.53;100.00
55070;BME280;40967;52.070;8.596;2023-01-05T03:24:20;100274.34;;;9.56;100.00
55070;BME280;40967;52.070;8.596;2023-01-05T03:27:05;100274.03;;;9.43;100.00
55070;BME280;40967;52.070;8.596;2023-01-05T03:29:50;100291.91;;;9.44;100.00
55070;BME280;40967;52.070;8.596;2023-01-05T03:32:48;100291.38;;;9.42;100.00
55070;BME280;40967;52.070;8.596;2023-01-05T03:35:38;100284.03;;;9.32;100.00
55070;BME280;40967;52.070;8.596;2023-01-05T03:40:37;100302.72;;;9.34;100.00
55070;BME280;40967;52.070;8.596;2023-01-05T03:43:04;100284.56;;;9.19;100.00
55070;BME280;40967;52.070;8.596;2023-01-05T03:45:38;100293.75;;;9.23;100.00
55070;BME280;40967;52.070;8.596;2023-01-05T03:48:04;100291.56;;;9.15;100.00
55070;BME280;40967;52.070;8.596;2023-01-05T03:50:30;100307.56;;;9.22;100.00
55070;BME280;40967;52.070;8.596;2023-01-05T03:52:55;100310.53;;;9.20;100.00
55070;BME280;40967;52.070;8.596;2023-01-05T03:55:21;100301.03;;;9.17;100.00
55070;BME280;40967;52.070;8.596;2023-01-05T03:57:46;100311.63;;;9.19;100.00
55070;BME280;40967;52.070;8.596;2023-01-05T04:00:12;100300.75;;;9.09;100.00
55070;BME280;40967;52.070;8.596;2023-01-05T04:02:38;100308.88;;;9.14;100.00
55070;BME280;40967;52.070;8.596;2023-01-05T04:05:04;100302.41;;;9.15;100.00
55070;BME280;40967;52.070;8.596;2023-01-05T04:07:29;100308.09;;;9.13;100.00
55070;BME280;40967;52.070;8.596;2023-01-05T04:09:54;100308.34;;;9.12;100.00
55070;BME280;40967;52.070;8.596;2023-01-05T04:12:20;100314.28;;;9.09;100.00
55070;BME280;40967;52.070;8.596;2023-01-05T04:14:45;100310.22;;;9.11;100.00
55070;BME280;40967;52.070;8.596;2023-01-05T04:17:11;100318.63;;;9.15;100.00
55070;BME280;40967;52.070;8.596;2023-01-05T04:19:36;100316.19;;;9.13;100.00
55070;BME280;40967;52.070;8.596;2023-01-05T04:22:03;100321.91;;;9.17;100.00
55070;BME280;40967;52.070;8.596;2023-01-05T04:24:29;100337.88;;;9.18;100.00
55070;BME280;40967;52.070;8.596;2023-01-05T04:26:54;100327.88;;;9.19;100.00
55070;BME280;40967;52.070;8.596;2023-01-05T04:29:19;100328.09;;;9.12;100.00
55070;BME280;40967;52.070;8.596;2023-01-05T04:31:45;100337.59;;;9.15;100.00
55070;BME280;40967;52.070;8.596;2023-01-05T04:34:10;100328.63;;;9.09;100.00
55070;BME280;40967;52.070;8.596;2023-01-05T04:36:35;100344.34;;;9.17;100.00
55070;BME280;40967;52.070;8.596;2023-01-05T04:39:01;100344.31;;;9.12;100.00
55070;BME280;40967;52.070;8.596;2023-01-05T04:41:26;100343.28;;;9.18;100.00
55070;BME280;40967;52.070;8.596;2023-01-05T04:43:51;100339.47;;;9.14;100.00
55070;BME280;40967;52.070;8.596;2023-01-05T04:46:17;100342.72;;;9.11;100.00
55070;BME280;40967;52.070;8.596;2023-01-05T04:48:42;100350.56;;;9.13;100.00
55070;BME280;40967;52.070;8.596;2023-01-05T04:51:08;100357.84;;;9.12;100.00
55070;BME280;40967;52.070;8.596;2023-01-05T04:53:33;100354.59;;;9.10;100.00
55070;BME280;40967;52.070;8.596;2023-01-05T04:55:59;100360.56;;;9.12;100.00
55070;BME280;40967;52.070;8.596;2023-01-05T04:58:24;100360.59;;;9.17;100.00
55070;BME280;40967;52.070;8.596;2023-01-05T05:00:50;100359.25;;;9.15;100.00
55070;BME280;40967;52.070;8.596;2023-01-05T05:03:15;100358.69;;;9.18;100.00
55070;BME280;40967;52.070;8.596;2023-01-05T05:05:41;100357.09;;;9.17;100.00
55070;BME280;40967;52.070;8.596;2023-01-05T05:08:06;100357.88;;;9.17;100.00
55070;BME280;40967;52.070;8.596;2023-01-05T05:10:31;100373.63;;;9.21;100.00
55070;BME280;40967;52.070;8.596;2023-01-05T05:12:57;100363.84;;;9.19;100.00
55070;BME280;40967;52.070;8.596;2023-01-05T05:15:23;100361.38;;;9.13;100.00
55070;BME280;40967;52.070;8.596;2023-01-05T05:17:48;100357.06;;;9.12;100.00
55070;BME280;40967;52.070;8.596;2023-01-05T05:20:14;100369.78;;;9.16;100.00
55070;BME280;40967;52.070;8.596;2023-01-05T05:22:40;100376.59;;;9.19;100.00
55070;BME280;40967;52.070;8.596;2023-01-05T05:25:06;100372.50;;;9.16;100.00
55070;BME280;40967;52.070;8.596;2023-01-05T05:27:31;100373.03;;;9.13;100.00
55070;BME280;40967;52.070;8.596;2023-01-05T05:29:57;100379.00;;;9.15;100.00
55070;BME280;40967;52.070;8.596;2023-01-05T05:32:22;100377.38;;;9.14;100.00
55070;BME280;40967;52.070;8.596;2023-01-05T05:34:47;100380.59;;;9.11;100.00
55070;BME280;40967;52.070;8.596;2023-01-05T05:37:13;100378.97;;;9.10;100.00
55070;BME280;40967;52.070;8.596;2023-01-05T05:39:38;100383.03;;;9.13;100.00
55070;BME280;40967;52.070;8.596;2023-01-05T05:42:04;100385.19;;;9.11;100.00
55070;BME280;40967;52.070;8.596;2023-01-05T05:44:29;100384.91;;;9.07;100.00
55070;BME280;40967;52.070;8.596;2023-01-05T05:46:54;100383.84;;;9.08;100.00
55070;BME280;40967;52.070;8.596;2023-01-05T05:49:20;100380.03;;;9.04;100.00
55070;BME280;40967;52.070;8.596;2023-01-05T05:51:45;100393.31;;;9.11;100.00
55070;BME280;40967;52.070;8.596;2023-01-05T05:54:10;100392.25;;;9.12;100.00
55070;BME280;40967;52.070;8.596;2023-01-05T05:56:36;100390.34;;;9.12;100.00
55070;BME280;40967;52.070;8.596;2023-01-05T05:59:01;100405.00;;;9.16;100.00
55070;BME280;40967;52.070;8.596;2023-01-05T06:01:27;100405.53;;;9.13;100.00
55070;BME280;40967;52.070;8.596;2023-01-05T06:03:52;100410.66;;;9.15;100.00
55070;BME280;40967;52.070;8.596;2023-01-05T06:06:17;100421.81;;;9.24;100.00
55070;BME280;40967;52.070;8.596;2023-01-05T06:08:43;100413.94;;;9.17;100.00
55070;BME280;40967;52.070;8.596;2023-01-05T06:11:08;100412.00;;;9.17;100.00
55070;BME280;40967;52.070;8.596;2023-01-05T06:13:33;100421.22;;;9.16;100.00
55070;BME280;40967;52.070;8.596;2023-01-05T06:15:59;100427.72;;;9.15;100.00
55070;BME280;40967;52.070;8.596;2023-01-05T06:18:24;100414.41;;;9.09;100.00
55070;BME280;40967;52.070;8.596;2023-01-05T06:20:52;100432.63;;;9.18;100.00
55070;BME280;40967;52.070;8.596;2023-01-05T06:23:18;100432.88;;;9.17;100.00
55070;BME280;40967;52.070;8.596;2023-01-05T06:25:43;100435.31;;;9.18;100.00
55070;BME280;40967;52.070;8.596;2023-01-05T06:28:09;100443.16;;;9.15;100.00
55070;BME280;40967;52.070;8.596;2023-01-05T06:30:34;100441.25;;;9.15;100.00
55070;BME280;40967;52.070;8.596;2023-01-05T06:32:59;100440.41;;;9.10;100.00
55070;BME280;40967;52.070;8.596;2023-01-05T06:35:25;100442.81;;;9.06;100.00
55070;BME280;40967;52.070;8.596;2023-01-05T06:37:50;100453.69;;;9.11;100.00
55070;BME280;40967;52.070;8.596;2023-01-05T06:40:16;100447.72;;;9.09;100.00
55070;BME280;40967;52.070;8.596;2023-01-05T06:42:42;100451.25;;;9.10;100.00
55070;BME280;40967;52.070;8.596;2023-01-05T06:45:09;100454.22;;;9.08;100.00
55070;BME280;40967;52.070;8.596;2023-01-05T06:47:36;100463.69;;;9.11;100.00
55070;BME280;40967;52.070;8.596;2023-01-05T06:50:01;100465.84;;;9.14;100.00
55070;BME280;40967;52.070;8.596;2023-01-05T06:52:26;100471.03;;;9.15;100.00
55070;BME280;40967;52.070;8.596;2023-01-05T06:54:52;100466.69;;;9.14;100.00
55070;BME280;40967;52.070;8.596;2023-01-05T06:57:17;100474.81;;;9.14;100.00
55070;BME280;40967;52.070;8.596;2023-01-05T06:59:42;100481.31;;;9.13;100.00
55070;BME280;40967;52.070;8.596;2023-01-05T07:02:13;100484.28;;;9.12;100.00
55070;BME280;40967;52.070;8.596;2023-01-05T07:04:39;100492.94;;;9.14;100.00
55070;BME280;40967;52.070;8.596;2023-01-05T07:07:04;100497.81;;;9.12;100.00
55070;BME280;40967;52.070;8.596;2023-01-05T07:09:30;100498.56;;;9.07;100.00
55070;BME280;40967;52.070;8.596;2023-01-05T07:11:55;100507.53;;;9.08;100.00
55070;BME280;40967;52.070;8.596;2023-01-05T07:14:20;100495.28;;;9.00;100.00
55070;BME280;40967;52.070;8.596;2023-01-05T07:16:46;100509.41;;;9.07;100.00
55070;BME280;40967;52.070;8.596;2023-01-05T07:19:11;100503.44;;;9.05;100.00
55070;BME280;40967;52.070;8.596;2023-01-05T07:21:36;100492.00;;;8.98;100.00
55070;BME280;40967;52.070;8.596;2023-01-05T07:24:02;100521.63;;;9.10;100.00
55070;BME280;40967;52.070;8.596;2023-01-05T07:26:28;100504.50;;;9.04;100.00
55070;BME280;40967;52.070;8.596;2023-01-05T07:28:53;100512.63;;;9.04;100.00
55070;BME280;40967;52.070;8.596;2023-01-05T07:31:18;100515.84;;;8.96;100.00
55070;BME280;40967;52.070;8.596;2023-01-05T07:33:44;100523.16;;;9.01;100.00
55070;BME280;40967;52.070;8.596;2023-01-05T07:36:09;100525.88;;;9.01;100.00
55070;BME280;40967;52.070;8.596;2023-01-05T07:38:35;100531.28;;;9.01;100.00
55070;BME280;40967;52.070;8.596;2023-01-05T07:41:01;100541.53;;;8.99;100.00
55070;BME280;40967;52.070;8.596;2023-01-05T07:43:27;100533.13;;;8.95;100.00
55070;BME280;40967;52.070;8.596;2023-01-05T07:46:00;100551.03;;;9.01;100.00
55070;BME280;40967;52.070;8.596;2023-01-05T07:48:25;100554.50;;;8.97;100.00
55070;BME280;40967;52.070;8.596;2023-01-05T07:50:51;100546.63;;;8.90;100.00
55070;BME280;40967;52.070;8.596;2023-01-05T07:53:17;100558.00;;;8.92;100.00
55070;BME280;40967;52.070;8.596;2023-01-05T07:55:42;100554.13;;;8.83;100.00
55070;BME280;40967;52.070;8.596;2023-01-05T07:58:08;100570.97;;;8.90;100.00
55070;BME280;40967;52.070;8.596;2023-01-05T08:00:33;100571.22;;;8.89;100.00
55070;BME280;40967;52.070;8.596;2023-01-05T08:02:58;100561.22;;;8.89;100.00
55070;BME280;40967;52.070;8.596;2023-01-05T08:05:24;100566.38;;;8.91;100.00
55070;BME280;40967;52.070;8.596;2023-01-05T08:07:54;100576.91;;;8.87;100.00
55070;BME280;40967;52.070;8.596;2023-01-05T08:10:19;100581.22;;;8.88;100.00
55070;BME280;40967;52.070;8.596;2023-01-05T08:12:54;100573.94;;;8.89;100.00
55070;BME280;40967;52.070;8.596;2023-01-05T08:16:00;100567.97;;;8.87;100.00
55070;BME280;40967;52.070;8.596;2023-01-05T08:18:25;100582.06;;;8.89;100.00
55070;BME280;40967;52.070;8.596;2023-01-05T08:20:56;100586.59;;;8.83;100.00
55070;BME280;40967;52.070;8.596;2023-01-05T08:23:24;100596.63;;;8.88;100.00
55070;BME280;40967;52.070;8.596;2023-01-05T08:25:50;100594.19;;;8.86;100.00
55070;BME280;40967;52.070;8.596;2023-01-05T08:28:15;100601.25;;;8.87;100.00
55070;BME280;40967;52.070;8.596;2023-01-05T08:30:40;100595.00;;;8.87;100.00
55070;BME280;40967;52.070;8.596;2023-01-05T08:33:06;100611.56;;;8.90;100.00
55070;BME280;40967;52.070;8.596;2023-01-05T08:35:31;100614.25;;;8.90;100.00
55070;BME280;40967;52.070;8.596;2023-01-05T08:37:57;100611.50;;;8.85;100.00
55070;BME280;40967;52.070;8.596;2023-01-05T08:40:22;100605.56;;;8.88;100.00
55070;BME280;40967;52.070;8.596;2023-01-05T08:42:52;100623.50;;;8.94;100.00
55070;BME280;40967;52.070;8.596;2023-01-05T08:45:19;100627.25;;;8.93;100.00
55070;BME280;40967;52.070;8.596;2023-01-05T08:47:46;100618.09;;;8.94;100.00
55070;BME280;40967;52.070;8.596;2023-01-05T08:50:11;100623.25;;;8.96;100.00
55070;BME280;40967;52.070;8.596;2023-01-05T08:52:37;100617.78;;;8.91;100.00
55070;BME280;40967;52.070;8.596;2023-01-05T08:55:05;100607.16;;;8.84;100.00
55070;BME280;40967;52.070;8.596;2023-01-05T08:57:32;100629.97;;;8.93;100.00
55070;BME280;40967;52.070;8.596;2023-01-05T08:59:58;100623.94;;;8.86;100.00
55070;BME280;40967;52.070;8.596;2023-01-05T09:02:23;100632.13;;;8.91;100.00
55070;BME280;40967;52.070;8.596;2023-01-05T09:04:56;100634.81;;;8.91;100.00
55070;BME280;40967;52.070;8.596;2023-01-05T09:07:21;100633.25;;;8.95;100.00
55070;BME280;40967;52.070;8.596;2023-01-05T09:09:47;100644.69;;;9.02;100.00
55070;BME280;40967;52.070;8.596;2023-01-05T09:12:13;100648.22;;;9.03;100.00
55070;BME280;40967;52.070;8.596;2023-01-05T09:14:38;100649.31;;;9.07;100.00
55070;BME280;40967;52.070;8.596;2023-01-05T09:17:04;100646.56;;;9.02;100.00
55070;BME280;40967;52.070;8.596;2023-01-05T09:19:29;100657.19;;;9.08;100.00
55070;BME280;40967;52.070;8.596;2023-01-05T09:21:55;100656.94;;;9.10;100.00
55070;BME280;40967;52.070;8.596;2023-01-05T09:24:20;100659.66;;;9.10;100.00
55070;BME280;40967;52.070;8.596;2023-01-05T09:26:46;100661.28;;;9.11;100.00
55070;BME280;40967;52.070;8.596;2023-01-05T09:29:11;100668.03;;;9.08;100.00
55070;BME280;40967;52.070;8.596;2023-01-05T09:31:39;100675.31;;;9.08;100.00
55070;BME280;40967;52.070;8.596;2023-01-05T09:34:04;100675.31;;;9.08;100.00
55070;BME280;40967;52.070;8.596;2023-01-05T09:36:30;100676.69;;;9.10;100.00
55070;BME280;40967;52.070;8.596;2023-01-05T09:38:56;100696.72;;;9.09;100.00
55070;BME280;40967;52.070;8.596;2023-01-05T09:44:13;100695.41;;;9.12;100.00
55070;BME280;40967;52.070;8.596;2023-01-05T09:46:42;100697.03;;;9.13;100.00
55070;BME280;40967;52.070;8.596;2023-01-05T09:49:13;100695.88;;;9.09;100.00
55070;BME280;40967;52.070;8.596;2023-01-05T09:51:39;100707.59;;;9.14;100.00
55070;BME280;40967;52.070;8.596;2023-01-05T09:54:04;100709.16;;;9.10;100.00
55070;BME280;40967;52.070;8.596;2023-01-05T09:56:34;100728.38;;;9.09;100.00
55070;BME280;40967;52.070;8.596;2023-01-05T09:59:25;100729.19;;;9.09;100.00
55070;BME280;40967;52.070;8.596;2023-01-05T10:01:54;100730.81;;;9.10;100.00
55070;BME280;40967;52.070;8.596;2023-01-05T10:04:22;100727.06;;;9.11;100.00
55070;BME280;40967;52.070;8.596;2023-01-05T10:06:52;100733.31;;;9.12;100.00
55070;BME280;40967;52.070;8.596;2023-01-05T10:09:30;100734.59;;;9.09;100.00
55070;BME280;40967;52.070;8.596;2023-01-05T10:12:17;100729.19;;;9.09;100.00
55070;BME280;40967;52.070;8.596;2023-01-05T10:15:11;100724.00;;;9.03;100.00
55070;BME280;40967;52.070;8.596;2023-01-05T10:17:38;100725.88;;;9.02;100.00
55070;BME280;40967;52.070;8.596;2023-01-05T10:20:24;100740.53;;;9.06;100.00
55070;BME280;40967;52.070;8.596;2023-01-05T10:23:38;100741.53;;;9.00;100.00
55070;BME280;40967;52.070;8.596;2023-01-05T10:26:32;100745.34;;;8.99;100.00
55070;BME280;40967;52.070;8.596;2023-01-05T10:29:05;100737.22;;;8.99;100.00
55070;BME280;40967;52.070;8.596;2023-01-05T10:31:58;100748.03;;;8.99;100.00
55070;BME280;40967;52.070;8.596;2023-01-05T10:40:22;100750.03;;;9.09;100.00
55070;BME280;40967;52.070;8.596;2023-01-05T10:45:23;100744.13;;;9.12;100.00
55070;BME280;40967;52.070;8.596;2023-01-05T10:47:50;100747.13;;;9.15;100.00
55070;BME280;40967;52.070;8.596;2023-01-05T10:50:26;100747.69;;;9.17;100.00
55070;BME280;40967;52.070;8.596;2023-01-05T10:52:53;100750.16;;;9.19;100.00
55070;BME280;40967;52.070;8.596;2023-01-05T10:55:19;100756.41;;;9.25;100.00
55070;BME280;40967;52.070;8.596;2023-01-05T10:57:45;100761.84;;;9.25;100.00
55070;BME280;40967;52.070;8.596;2023-01-05T11:00:16;100756.38;;;9.19;100.00
55070;BME280;40967;52.070;8.596;2023-01-05T11:05:37;100768.69;;;9.32;100.00
55070;BME280;40967;52.070;8.596;2023-01-05T11:08:25;100763.84;;;9.34;100.00
55070;BME280;40967;52.070;8.596;2023-01-05T11:16:25;100770.88;;;9.35;100.00
55070;BME280;40967;52.070;8.596;2023-01-05T11:18:54;100772.50;;;9.31;100.00
55070;BME280;40967;52.070;8.596;2023-01-05T11:21:23;100763.84;;;9.34;100.00
55070;BME280;40967;52.070;8.596;2023-01-05T11:23:50;100771.19;;;9.39;100.00
55070;BME280;40967;52.070;8.596;2023-01-05T11:37:35;100771.59;;;9.52;100.00
55070;BME280;40967;52.070;8.596;2023-01-05T11:42:17;100793.44;;;9.67;100.00
55070;BME280;40967;52.070;8.596;2023-01-05T11:47:45;100781.50;;;9.68;100.00
55070;BME280;40967;52.070;8.596;2023-01-05T11:52:48;100783.47;;;9.73;100.00
55070;BME280;40967;52.070;8.596;2023-01-05T11:55:35;100783.94;;;9.70;100.00
55070;BME280;40967;52.070;8.596;2023-01-05T11:58:16;100787.44;;;9.65;100.00
55070;BME280;40967;52.070;8.596;2023-01-05T12:01:25;100798.28;;;9.65;100.00
55070;BME280;40967;52.070;8.596;2023-01-05T12:09:06;100792.03;;;9.65;100.00
55070;BME280;40967;52.070;8.596;2023-01-05T12:11:56;100793.44;;;9.67;100.00
55070;BME280;40967;52.070;8.596;2023-01-05T12:17:37;100788.28;;;9.66;100.00
55070;BME280;40967;52.070;8.596;2023-01-05T12:20:26;100786.91;;;9.68;100.00
55070;BME280;40967;52.070;8.596;2023-01-05T12:26:07;100796.88;;;9.63;100.00
55070;BME280;40967;52.070;8.596;2023-01-05T12:28:51;100805.84;;;9.63;100.00
55070;BME280;40967;52.070;8.596;2023-01-05T12:31:34;100811.56;;;9.67;100.00
55070;BME280;40967;52.070;8.596;2023-01-05T12:37:20;100802.66;;;9.71;100.00
55070;BME280;40967;52.070;8.596;2023-01-05T12:45:45;100807.63;;;9.79;100.00
55070;BME280;40967;52.070;8.596;2023-01-05T12:48:23;100809.25;;;9.80;100.00
55070;BME280;40967;52.070;8.596;2023-01-05T12:56:29;100808.94;;;9.77;100.00
55070;BME280;40967;52.070;8.596;2023-01-05T12:59:17;100824.16;;;9.78;100.00
55070;BME280;40967;52.070;8.596;2023-01-05T13:04:42;100830.38;;;9.78;100.00
55070;BME280;40967;52.070;8.596;2023-01-05T13:07:14;100823.63;;;9.81;100.00
55070;BME280;40967;52.070;8.596;2023-01-05T13:09:41;100826.84;;;9.78;100.00
55070;BME280;40967;52.070;8.596;2023-01-05T13:12:09;100826.59;;;9.79;100.00
55070;BME280;40967;52.070;8.596;2023-01-05T13:14:41;100827.72;;;9.83;100.00
55070;BME280;40967;52.070;8.596;2023-01-05T13:17:27;100825.56;;;9.85;100.00
55070;BME280;40967;52.070;8.596;2023-01-05T13:20:24;100818.59;;;9.68;100.00
55070;BME280;40967;52.070;8.596;2023-01-05T13:22:50;100838.69;;;9.72;100.00
55070;BME280;40967;52.070;8.596;2023-01-05T13:25:24;100818.78;;;9.56;100.00
55070;BME280;40967;52.070;8.596;2023-01-05T13:27:52;100840.75;;;9.60;100.00
55070;BME280;40967;52.070;8.596;2023-01-05T13:30:29;100838.88;;;9.60;100.00
55070;BME280;40967;52.070;8.596;2023-01-05T13:33:07;100842.44;;;9.66;100.00
55070;BME280;40967;52.070;8.596;2023-01-05T13:45:15;100848.66;;;9.66;100.00
55070;BME280;40967;52.070;8.596;2023-01-05T13:53:22;100858.75;;;9.71;100.00
55070;BME280;40967;52.070;8.596;2023-01-05T14:01:32;100874.50;;;9.74;100.00
55070;BME280;40967;52.070;8.596;2023-01-05T14:03:58;100874.44;;;9.69;100.00
55070;BME280;40967;52.070;8.596;2023-01-05T14:06:30;100872.00;;;9.67;100.00
55070;BME280;40967;52.070;8.596;2023-01-05T14:11:28;100877.94;;;9.64;100.00
55070;BME280;40967;52.070;8.596;2023-01-05T14:32:26;100893.94;;;9.66;100.00
55070;BME280;40967;52.070;8.596;2023-01-05T14:35:01;100904.44;;;9.62;100.00
55070;BME280;40967;52.070;8.596;2023-01-05T14:37:36;100910.66;;;9.63;100.00
55070;BME280;40967;52.070;8.596;2023-01-05T14:42:39;100903.63;;;9.62;100.00
55070;BME280;40967;52.070;8.596;2023-01-05T14:45:08;100900.09;;;9.61;100.00
55070;BME280;40967;52.070;8.596;2023-01-05T14:47:47;100901.91;;;9.56;100.00
55070;BME280;40967;52.070;8.596;2023-01-05T14:50:39;100903.56;;;9.57;100.00
55070;BME280;40967;52.070;8.596;2023-01-05T14:55:35;100905.09;;;9.48;100.00
55070;BME280;40967;52.070;8.596;2023-01-05T15:06:09;100926.50;;;9.49;100.00
55070;BME280;40967;52.070;8.596;2023-01-05T15:32:17;100918.25;;;9.39;100.00
55070;BME280;40967;52.070;8.596;2023-01-05T15:34:35;100911.44;;;9.37;100.00
55070;BME280;40967;52.070;8.596;2023-01-05T15:37:34;100916.94;;;9.42;100.00
55070;BME280;40967;52.070;8.596;2023-01-05T15:40:01;100914.41;;;9.35;100.00
55070;BME280;40967;52.070;8.596;2023-01-05T15:44:57;100922.78;;;9.34;100.00
55070;BME280;40967;52.070;8.596;2023-01-05T15:47:24;100929.59;;;9.36;100.00
55070;BME280;40967;52.070;8.596;2023-01-05T15:49:59;100909.19;;;9.29;100.00
55070;BME280;40967;52.070;8.596;2023-01-05T15:52:36;100937.47;;;9.38;100.00
55070;BME280;40967;52.070;8.596;2023-01-05T15:55:16;100938.50;;;9.37;100.00
55070;BME280;40967;52.070;8.596;2023-01-05T15:57:52;100929.84;;;9.35;100.00
55070;BME280;40967;52.070;8.596;2023-01-05T16:00:24;100936.91;;;9.36;100.00
55070;BME280;40967;52.070;8.596;2023-01-05T16:02:50;100934.44;;;9.34;100.00